Airfield :
LOGIN :

Register | Disclaimer

   EN    FR    IT 

 










Legend :    VFR   Marginal VFR   IFR   Intensive IFR   Very Intensive IFR
Visi :
Ceiling :
>= 8 km
>= 3000ft
5 to 8 km
1000 to 3000 ft
1500m to 5 km
500 to 1000 ft
800 to 1500m
200 to 500 ft
< 800m
< 200 ft
Symbols :   Thunderstorms  Fog  Heavy snow  Heavy precipitations  Wind > 20 kt
SIGMETs :     Misc.  Thunderstorms  Icing  Turbulence  Mountain Waves  Volcanic Ashes







- Airport Elevation : 826 ft
- IATA code : CWC


UKLN - Chernivtsi International

CURRENT METAR :
  • 201832Z 34003MPS 1400 1300SE R33/P2000N SHSN BKN004 BKN///CB M03/M03 Q1015 R33/990324 NOSIG

EXPIRED METARs :
  • 201826Z 33003MPS 2000 SHSN BKN009 BKN///CB M03/M03 Q1015 R33/990324 NOSIG
  • 201800Z 33002MPS 1700 SHSN BKN011 BKN///CB M02/M03 Q1015 R33/990324 NOSIG
  • 201732Z 34001MPS 1900 SHSN BKN003 BKN///CB M03/M03 Q1014 R15/990324 NOSIG
  • 201706Z 00000MPS 2300 -SHSN BKN004 BKN///CB M03/M03 Q1014 R15/990324 NOSIG
  • 201630Z 00000MPS 2400 -SHSN BKN006 BKN///CB M03/M03 Q1014 R15/990324 NOSIG
  • 201617Z 00000MPS 1800 SHSN BKN009 BKN///CB M02/M03 Q1014 R15/990324 NOSIG
  • 201602Z 00000MPS 1400 1200SE R15/P2000N SHSN BKN004 BKN///CB M02/M03 Q1014 R15/990324 NOSIG

TAF COR TAF UKLN
Valid from the 20 at 18:00 until the 21 at 03:00 UTC


201747Z 2018/2103 VRB01MPS 2100 -SHSN BKN007 BKN030CB TXM03/2018Z TNM05/2103Z
TEMPO 2018/2103 32005MPS 1000 SHSN BKN004 BKN020CB
No reported NOTAMs for that airfield.



MET'MAP, your aeronautical weather chart ! - Copyright ORBIFLY December 2007 - Disclaimer

ORBIFLY MET'MAP TEAM :

Programming & Development : Alexandra Zaïnal
Concept & Development : Baudouin d'Aumeries
Co-Development & Prog : Marc-Olivier Méhu
Technical & hardware support : Manuel Goepfert

Contact : metmap@orbifly.com




SOURCES & CREDITS :

   NOAA